Portada
METAR-TAF:

METAR-TAF

Aeroports :

Illes Wake, Estats Units d'Amèrica

latitud: 19-17N, longitud: 166-39E, altitud: 4 m

Observació

L'informe es va fer fa 16 minuts, a les 11:55 UTC
Vent 14 kt del Est/Nord-Est
Temperatura 25°C
Humitat 65%
Pressió 1018 hPa
Visibilitat: 16.1 km
Escasses núvols a una alçada de 3400 ft
Cel cobert a una alçada de 7000 ft

METAR: PWAK 141155Z AUTO 07014KT 10SM FEW034 OVC070 25/18 A3006 RMK AO2 SLP185 T02500177 10268 20250 402820237 50003

Hora: 00:11 (12:11 UTC)

Pronòstic

L'informe es va fer fa 6 hores i 11 minuts, a les 06:00 UTC
Pronòstic vàlid del 14 a les 06 UTC al 15 a les 12 UTC
Vent 20 kt del Nord-Est
Visibilitat 10 km o més
Núvols disperses a una alçada de 3000 ft

TAF: PWAK 140600Z 1406/1512 05020KT 9999 SCT030 QNH2999INS TX28/1501Z TN23/1411Z FOR MIL USE ONLY

Observacions i pronòstics meteorològics de més de 4000 aeroports (METAR i TAF).

Les estacions disponibles són els punts grocs i vermells al mapa.

Posi el ratolí al punt desitjat per veure el nom de l'estació.

Feu clic per veure les observacions i els pronòstics meteorològics.

Per canviar el mapa: feu clic els botons verds amb una creu de color negre per apropar; al botó verd amb un guió per allunyar la imatge; o en les fletxes verdes per a mapes adjacents.


METAR-TAF: